sensor_id;sensor_type;location;lat;lon;timestamp;temperature;humidity
74511;DHT22;62991;50.040;18.400;2023-09-19T00:02:36;23.00;59.00
74511;DHT22;62991;50.040;18.400;2023-09-19T00:05:38;23.00;59.00
74511;DHT22;62991;50.040;18.400;2023-09-19T00:08:39;23.00;59.00
74511;DHT22;62991;50.040;18.400;2023-09-19T00:11:39;23.00;58.90
74511;DHT22;62991;50.040;18.400;2023-09-19T00:14:41;23.00;58.80
74511;DHT22;62991;50.040;18.400;2023-09-19T00:17:42;23.00;59.10
74511;DHT22;62991;50.040;18.400;2023-09-19T00:20:43;23.00;59.10
74511;DHT22;62991;50.040;18.400;2023-09-19T00:23:48;22.90;59.20
74511;DHT22;62991;50.040;18.400;2023-09-19T00:26:48;22.90;59.20
74511;DHT22;62991;50.040;18.400;2023-09-19T00:29:49;22.90;59.30
74511;DHT22;62991;50.040;18.400;2023-09-19T00:32:50;22.90;59.20
74511;DHT22;62991;50.040;18.400;2023-09-19T00:35:56;22.90;59.40
74511;DHT22;62991;50.040;18.400;2023-09-19T00:39:02;22.80;59.10
74511;DHT22;62991;50.040;18.400;2023-09-19T00:42:05;22.80;59.00
74511;DHT22;62991;50.040;18.400;2023-09-19T00:45:07;22.70;59.70
74511;DHT22;62991;50.040;18.400;2023-09-19T00:48:11;22.70;59.60
74511;DHT22;62991;50.040;18.400;2023-09-19T00:51:12;22.80;59.60
74511;DHT22;62991;50.040;18.400;2023-09-19T00:54:15;22.80;59.50
74511;DHT22;62991;50.040;18.400;2023-09-19T00:57:18;22.80;59.80
74511;DHT22;62991;50.040;18.400;2023-09-19T01:00:20;22.80;59.50
74511;DHT22;62991;50.040;18.400;2023-09-19T01:03:22;22.80;59.60
74511;DHT22;62991;50.040;18.400;2023-09-19T01:06:24;22.80;59.50
74511;DHT22;62991;50.040;18.400;2023-09-19T01:09:24;22.80;59.50
74511;DHT22;62991;50.040;18.400;2023-09-19T01:12:53;22.80;59.70
74511;DHT22;62991;50.040;18.400;2023-09-19T01:16:08;22.80;60.00
74511;DHT22;62991;50.040;18.400;2023-09-19T01:19:42;22.80;59.80
74511;DHT22;62991;50.040;18.400;2023-09-19T01:23:08;22.80;60.20
74511;DHT22;62991;50.040;18.400;2023-09-19T01:30:11;22.80;60.40
74511;DHT22;62991;50.040;18.400;2023-09-19T01:33:14;22.70;60.40
74511;DHT22;62991;50.040;18.400;2023-09-19T01:36:15;22.70;60.50
74511;DHT22;62991;50.040;18.400;2023-09-19T01:39:16;22.70;60.50
74511;DHT22;62991;50.040;18.400;2023-09-19T01:42:40;22.60;60.60
74511;DHT22;62991;50.040;18.400;2023-09-19T01:45:48;22.60;61.00
74511;DHT22;62991;50.040;18.400;2023-09-19T01:48:58;22.50;60.80
74511;DHT22;62991;50.040;18.400;2023-09-19T01:52:13;22.20;61.70
74511;DHT22;62991;50.040;18.400;2023-09-19T01:55:15;21.90;62.90
74511;DHT22;62991;50.040;18.400;2023-09-19T01:58:44;21.80;63.50
74511;DHT22;62991;50.040;18.400;2023-09-19T02:01:45;21.70;64.30
74511;DHT22;62991;50.040;18.400;2023-09-19T02:04:48;21.60;65.00
74511;DHT22;62991;50.040;18.400;2023-09-19T02:07:49;21.60;65.20
74511;DHT22;62991;50.040;18.400;2023-09-19T02:10:51;21.50;65.80
74511;DHT22;62991;50.040;18.400;2023-09-19T02:13:53;21.40;66.10
74511;DHT22;62991;50.040;18.400;2023-09-19T02:16:55;21.40;66.60
74511;DHT22;62991;50.040;18.400;2023-09-19T02:19:56;21.40;66.60
74511;DHT22;62991;50.040;18.400;2023-09-19T02:22:59;21.30;67.10
74511;DHT22;62991;50.040;18.400;2023-09-19T02:26:00;21.30;67.20
74511;DHT22;62991;50.040;18.400;2023-09-19T02:29:06;21.30;67.40
74511;DHT22;62991;50.040;18.400;2023-09-19T02:32:07;21.20;67.90
74511;DHT22;62991;50.040;18.400;2023-09-19T02:35:08;21.20;68.20
74511;DHT22;62991;50.040;18.400;2023-09-19T02:38:11;21.20;68.20
74511;DHT22;62991;50.040;18.400;2023-09-19T02:41:12;21.10;68.40
74511;DHT22;62991;50.040;18.400;2023-09-19T02:44:13;21.10;68.70
74511;DHT22;62991;50.040;18.400;2023-09-19T02:47:14;21.20;68.30
74511;DHT22;62991;50.040;18.400;2023-09-19T02:50:17;21.30;68.20
74511;DHT22;62991;50.040;18.400;2023-09-19T02:53:18;21.40;67.70
74511;DHT22;62991;50.040;18.400;2023-09-19T02:56:19;21.30;68.10
74511;DHT22;62991;50.040;18.400;2023-09-19T02:59:20;21.30;68.40
74511;DHT22;62991;50.040;18.400;2023-09-19T03:02:20;21.30;68.80
74511;DHT22;62991;50.040;18.400;2023-09-19T03:05:24;21.20;68.60
74511;DHT22;62991;50.040;18.400;2023-09-19T03:08:26;21.30;68.50
74511;DHT22;62991;50.040;18.400;2023-09-19T03:11:27;21.30;68.50
74511;DHT22;62991;50.040;18.400;2023-09-19T03:14:28;21.20;69.00
74511;DHT22;62991;50.040;18.400;2023-09-19T03:17:30;21.10;69.30
74511;DHT22;62991;50.040;18.400;2023-09-19T03:20:31;21.20;69.20
74511;DHT22;62991;50.040;18.400;2023-09-19T03:23:32;21.10;69.60
74511;DHT22;62991;50.040;18.400;2023-09-19T03:26:33;21.00;70.00
74511;DHT22;62991;50.040;18.400;2023-09-19T03:29:34;21.00;70.00
74511;DHT22;62991;50.040;18.400;2023-09-19T03:32:35;21.10;69.70
74511;DHT22;62991;50.040;18.400;2023-09-19T03:35:36;21.20;69.40
74511;DHT22;62991;50.040;18.400;2023-09-19T03:38:37;21.10;69.70
74511;DHT22;62991;50.040;18.400;2023-09-19T03:41:38;21.20;69.30
74511;DHT22;62991;50.040;18.400;2023-09-19T03:44:39;21.30;69.40
74511;DHT22;62991;50.040;18.400;2023-09-19T03:47:40;21.10;69.70
74511;DHT22;62991;50.040;18.400;2023-09-19T03:50:40;21.00;69.70
74511;DHT22;62991;50.040;18.400;2023-09-19T03:53:41;21.00;69.70
74511;DHT22;62991;50.040;18.400;2023-09-19T03:56:42;21.00;69.40
74511;DHT22;62991;50.040;18.400;2023-09-19T03:59:43;21.00;69.60
74511;DHT22;62991;50.040;18.400;2023-09-19T04:02:44;20.90;69.40
74511;DHT22;62991;50.040;18.400;2023-09-19T04:05:46;20.90;69.70
74511;DHT22;62991;50.040;18.400;2023-09-19T04:08:48;20.90;69.40
74511;DHT22;62991;50.040;18.400;2023-09-19T04:11:49;20.80;69.70
74511;DHT22;62991;50.040;18.400;2023-09-19T04:14:50;20.70;69.60
74511;DHT22;62991;50.040;18.400;2023-09-19T04:17:52;20.80;69.50
74511;DHT22;62991;50.040;18.400;2023-09-19T04:20:53;20.70;69.70
74511;DHT22;62991;50.040;18.400;2023-09-19T04:23:54;20.40;70.50
74511;DHT22;62991;50.040;18.400;2023-09-19T04:26:55;20.30;70.90
74511;DHT22;62991;50.040;18.400;2023-09-19T04:29:55;20.10;70.60
74511;DHT22;62991;50.040;18.400;2023-09-19T04:32:59;20.10;70.90
74511;DHT22;62991;50.040;18.400;2023-09-19T04:36:02;20.10;70.70
74511;DHT22;62991;50.040;18.400;2023-09-19T04:39:04;20.00;71.00
74511;DHT22;62991;50.040;18.400;2023-09-19T04:42:08;19.80;71.40
74511;DHT22;62991;50.040;18.400;2023-09-19T04:45:09;19.70;71.40
74511;DHT22;62991;50.040;18.400;2023-09-19T04:48:10;19.60;71.90
74511;DHT22;62991;50.040;18.400;2023-09-19T04:51:11;19.80;71.40
74511;DHT22;62991;50.040;18.400;2023-09-19T04:54:12;19.70;71.40
74511;DHT22;62991;50.040;18.400;2023-09-19T04:57:13;19.70;71.70
74511;DHT22;62991;50.040;18.400;2023-09-19T05:00:19;19.60;71.30
74511;DHT22;62991;50.040;18.400;2023-09-19T05:03:19;19.60;71.60
74511;DHT22;62991;50.040;18.400;2023-09-19T05:06:21;19.50;71.40
74511;DHT22;62991;50.040;18.400;2023-09-19T05:09:22;19.40;71.10
74511;DHT22;62991;50.040;18.400;2023-09-19T05:12:23;19.20;71.20
74511;DHT22;62991;50.040;18.400;2023-09-19T05:15:26;19.10;71.20
74511;DHT22;62991;50.040;18.400;2023-09-19T05:18:27;19.00;71.40
74511;DHT22;62991;50.040;18.400;2023-09-19T05:21:29;18.90;71.20
74511;DHT22;62991;50.040;18.400;2023-09-19T05:24:31;18.80;72.20
74511;DHT22;62991;50.040;18.400;2023-09-19T05:27:32;18.80;71.80
74511;DHT22;62991;50.040;18.400;2023-09-19T05:30:34;18.70;71.70
74511;DHT22;62991;50.040;18.400;2023-09-19T05:33:44;18.60;71.80
74511;DHT22;62991;50.040;18.400;2023-09-19T05:36:45;18.50;72.70
74511;DHT22;62991;50.040;18.400;2023-09-19T05:39:46;18.40;73.80
74511;DHT22;62991;50.040;18.400;2023-09-19T05:42:47;18.30;75.30
74511;DHT22;62991;50.040;18.400;2023-09-19T05:45:48;18.40;75.40
74511;DHT22;62991;50.040;18.400;2023-09-19T05:48:48;18.40;75.50
74511;DHT22;62991;50.040;18.400;2023-09-19T05:51:50;18.50;75.60
74511;DHT22;62991;50.040;18.400;2023-09-19T05:54:54;18.50;75.60
74511;DHT22;62991;50.040;18.400;2023-09-19T05:57:56;18.40;76.00
74511;DHT22;62991;50.040;18.400;2023-09-19T06:00:57;18.30;76.40
74511;DHT22;62991;50.040;18.400;2023-09-19T06:03:58;18.30;76.40
74511;DHT22;62991;50.040;18.400;2023-09-19T06:07:00;18.40;76.30
74511;DHT22;62991;50.040;18.400;2023-09-19T06:10:05;18.30;76.60
74511;DHT22;62991;50.040;18.400;2023-09-19T06:13:07;18.50;76.00
74511;DHT22;62991;50.040;18.400;2023-09-19T06:16:10;18.50;75.90
74511;DHT22;62991;50.040;18.400;2023-09-19T06:19:11;18.60;76.00
74511;DHT22;62991;50.040;18.400;2023-09-19T06:22:15;18.60;76.50
74511;DHT22;62991;50.040;18.400;2023-09-19T06:25:19;18.80;75.90
74511;DHT22;62991;50.040;18.400;2023-09-19T06:28:20;18.90;75.30
74511;DHT22;62991;50.040;18.400;2023-09-19T06:31:25;19.10;75.10
74511;DHT22;62991;50.040;18.400;2023-09-19T06:34:26;18.80;76.20
74511;DHT22;62991;50.040;18.400;2023-09-19T06:37:30;18.50;77.60
74511;DHT22;62991;50.040;18.400;2023-09-19T06:40:31;18.40;78.30
74511;DHT22;62991;50.040;18.400;2023-09-19T06:43:32;18.60;78.10
74511;DHT22;62991;50.040;18.400;2023-09-19T06:46:34;18.50;78.00
74511;DHT22;62991;50.040;18.400;2023-09-19T06:49:36;18.50;78.40
74511;DHT22;62991;50.040;18.400;2023-09-19T06:52:36;18.50;78.60
74511;DHT22;62991;50.040;18.400;2023-09-19T06:55:38;18.60;78.60
74511;DHT22;62991;50.040;18.400;2023-09-19T06:58:38;18.70;78.30
74511;DHT22;62991;50.040;18.400;2023-09-19T07:01:39;18.80;77.80
74511;DHT22;62991;50.040;18.400;2023-09-19T07:04:40;18.80;78.20
74511;DHT22;62991;50.040;18.400;2023-09-19T07:07:41;18.90;77.60
74511;DHT22;62991;50.040;18.400;2023-09-19T07:10:42;19.10;77.00
74511;DHT22;62991;50.040;18.400;2023-09-19T07:13:54;19.30;76.60
74511;DHT22;62991;50.040;18.400;2023-09-19T07:16:55;19.40;76.60
74511;DHT22;62991;50.040;18.400;2023-09-19T07:19:55;19.20;76.50
74511;DHT22;62991;50.040;18.400;2023-09-19T07:22:58;19.30;76.40
74511;DHT22;62991;50.040;18.400;2023-09-19T07:26:00;19.30;76.60
74511;DHT22;62991;50.040;18.400;2023-09-19T07:29:01;19.40;77.10
74511;DHT22;62991;50.040;18.400;2023-09-19T07:32:05;19.50;76.40
74511;DHT22;62991;50.040;18.400;2023-09-19T07:35:07;19.60;76.00
74511;DHT22;62991;50.040;18.400;2023-09-19T07:38:08;19.70;75.30
74511;DHT22;62991;50.040;18.400;2023-09-19T07:41:11;19.80;75.50
74511;DHT22;62991;50.040;18.400;2023-09-19T07:44:12;19.70;75.00
74511;DHT22;62991;50.040;18.400;2023-09-19T07:47:14;19.60;75.20
74511;DHT22;62991;50.040;18.400;2023-09-19T07:50:19;19.60;75.10
74511;DHT22;62991;50.040;18.400;2023-09-19T07:53:20;19.50;75.90
74511;DHT22;62991;50.040;18.400;2023-09-19T07:56:20;19.50;75.40
74511;DHT22;62991;50.040;18.400;2023-09-19T07:59:23;19.60;75.70
74511;DHT22;62991;50.040;18.400;2023-09-19T08:02:23;19.50;75.30
74511;DHT22;62991;50.040;18.400;2023-09-19T08:05:24;19.40;75.60
74511;DHT22;62991;50.040;18.400;2023-09-19T08:08:25;19.50;76.10
74511;DHT22;62991;50.040;18.400;2023-09-19T08:11:26;19.60;76.10
74511;DHT22;62991;50.040;18.400;2023-09-19T08:14:32;19.60;75.90
74511;DHT22;62991;50.040;18.400;2023-09-19T08:17:35;19.60;76.20
74511;DHT22;62991;50.040;18.400;2023-09-19T08:20:36;19.50;76.40
74511;DHT22;62991;50.040;18.400;2023-09-19T08:23:38;19.50;76.70
74511;DHT22;62991;50.040;18.400;2023-09-19T08:26:39;19.50;76.60
74511;DHT22;62991;50.040;18.400;2023-09-19T08:29:40;19.50;76.80
74511;DHT22;62991;50.040;18.400;2023-09-19T08:32:40;19.60;76.30
74511;DHT22;62991;50.040;18.400;2023-09-19T08:35:43;19.60;76.10
74511;DHT22;62991;50.040;18.400;2023-09-19T08:38:44;19.50;76.30
74511;DHT22;62991;50.040;18.400;2023-09-19T08:41:45;19.50;76.60
74511;DHT22;62991;50.040;18.400;2023-09-19T08:44:46;19.60;76.90
74511;DHT22;62991;50.040;18.400;2023-09-19T08:48:16;19.80;76.20
74511;DHT22;62991;50.040;18.400;2023-09-19T08:51:21;19.80;76.10
74511;DHT22;62991;50.040;18.400;2023-09-19T08:54:28;19.80;76.40
74511;DHT22;62991;50.040;18.400;2023-09-19T08:57:33;19.90;76.20
74511;DHT22;62991;50.040;18.400;2023-09-19T09:00:38;19.90;75.90
74511;DHT22;62991;50.040;18.400;2023-09-19T09:03:43;19.80;76.40
74511;DHT22;62991;50.040;18.400;2023-09-19T09:06:47;19.80;76.60
74511;DHT22;62991;50.040;18.400;2023-09-19T09:09:51;19.70;76.70
74511;DHT22;62991;50.040;18.400;2023-09-19T09:12:52;19.70;76.50
74511;DHT22;62991;50.040;18.400;2023-09-19T09:15:55;19.80;76.70
74511;DHT22;62991;50.040;18.400;2023-09-19T09:18:55;19.90;76.60
74511;DHT22;62991;50.040;18.400;2023-09-19T09:22:10;20.00;76.30
74511;DHT22;62991;50.040;18.400;2023-09-19T09:25:11;19.70;77.30
74511;DHT22;62991;50.040;18.400;2023-09-19T09:28:12;19.70;77.10
74511;DHT22;62991;50.040;18.400;2023-09-19T09:31:25;19.80;77.00
74511;DHT22;62991;50.040;18.400;2023-09-19T09:34:35;19.80;77.10
74511;DHT22;62991;50.040;18.400;2023-09-19T09:37:36;19.80;77.30
74511;DHT22;62991;50.040;18.400;2023-09-19T09:40:49;19.90;76.20
74511;DHT22;62991;50.040;18.400;2023-09-19T09:44:16;19.80;76.70
74511;DHT22;62991;50.040;18.400;2023-09-19T09:47:41;20.10;76.20
74511;DHT22;62991;50.040;18.400;2023-09-19T09:50:48;19.80;76.90
74511;DHT22;62991;50.040;18.400;2023-09-19T09:53:49;19.80;76.70
74511;DHT22;62991;50.040;18.400;2023-09-19T09:56:58;19.90;76.90
74511;DHT22;62991;50.040;18.400;2023-09-19T10:00:03;19.90;77.10
74511;DHT22;62991;50.040;18.400;2023-09-19T10:03:47;19.90;76.90
74511;DHT22;62991;50.040;18.400;2023-09-19T10:06:48;19.80;77.90
74511;DHT22;62991;50.040;18.400;2023-09-19T10:09:50;19.50;78.40
74511;DHT22;62991;50.040;18.400;2023-09-19T10:12:55;19.50;78.40
74511;DHT22;62991;50.040;18.400;2023-09-19T10:16:06;19.40;78.30
74511;DHT22;62991;50.040;18.400;2023-09-19T10:19:16;19.40;78.20
74511;DHT22;62991;50.040;18.400;2023-09-19T10:22:17;19.40;78.30
74511;DHT22;62991;50.040;18.400;2023-09-19T10:25:27;19.40;78.20
74511;DHT22;62991;50.040;18.400;2023-09-19T10:28:32;19.40;78.60
74511;DHT22;62991;50.040;18.400;2023-09-19T10:31:35;19.20;79.10
74511;DHT22;62991;50.040;18.400;2023-09-19T10:34:38;19.20;79.30
74511;DHT22;62991;50.040;18.400;2023-09-19T10:37:45;19.50;78.40
74511;DHT22;62991;50.040;18.400;2023-09-19T10:40:52;19.70;76.70
74511;DHT22;62991;50.040;18.400;2023-09-19T10:43:53;19.70;77.00
74511;DHT22;62991;50.040;18.400;2023-09-19T10:46:55;19.90;77.40
74511;DHT22;62991;50.040;18.400;2023-09-19T10:49:57;19.90;76.70
74511;DHT22;62991;50.040;18.400;2023-09-19T10:53:01;20.10;76.70
74511;DHT22;62991;50.040;18.400;2023-09-19T10:56:05;20.30;75.90
74511;DHT22;62991;50.040;18.400;2023-09-19T10:59:12;20.10;76.30
74511;DHT22;62991;50.040;18.400;2023-09-19T11:02:17;20.40;76.30
74511;DHT22;62991;50.040;18.400;2023-09-19T11:05:19;20.30;75.00
74511;DHT22;62991;50.040;18.400;2023-09-19T11:08:20;20.30;75.50
74511;DHT22;62991;50.040;18.400;2023-09-19T11:11:39;20.40;75.50
74511;DHT22;62991;50.040;18.400;2023-09-19T11:14:41;20.40;75.10
74511;DHT22;62991;50.040;18.400;2023-09-19T11:17:43;20.30;74.80
74511;DHT22;62991;50.040;18.400;2023-09-19T11:20:47;20.40;74.70
74511;DHT22;62991;50.040;18.400;2023-09-19T11:27:13;20.70;73.60
74511;DHT22;62991;50.040;18.400;2023-09-19T11:30:26;20.80;73.20
74511;DHT22;62991;50.040;18.400;2023-09-19T11:33:29;20.80;72.90
74511;DHT22;62991;50.040;18.400;2023-09-19T11:36:39;20.70;73.60
74511;DHT22;62991;50.040;18.400;2023-09-19T11:39:40;20.40;73.10
74511;DHT22;62991;50.040;18.400;2023-09-19T11:43:29;20.20;73.50
74511;DHT22;62991;50.040;18.400;2023-09-19T11:46:51;20.10;74.00
74511;DHT22;62991;50.040;18.400;2023-09-19T11:49:55;20.40;74.00
74511;DHT22;62991;50.040;18.400;2023-09-19T11:52:55;20.60;72.90
74511;DHT22;62991;50.040;18.400;2023-09-19T11:55:56;20.60;72.70
74511;DHT22;62991;50.040;18.400;2023-09-19T11:59:01;20.80;71.40
74511;DHT22;62991;50.040;18.400;2023-09-19T12:02:04;21.20;70.40
74511;DHT22;62991;50.040;18.400;2023-09-19T12:05:06;21.40;67.90
74511;DHT22;62991;50.040;18.400;2023-09-19T12:08:09;21.40;70.00
74511;DHT22;62991;50.040;18.400;2023-09-19T12:11:15;21.60;69.80
74511;DHT22;62991;50.040;18.400;2023-09-19T12:14:25;21.90;68.10
74511;DHT22;62991;50.040;18.400;2023-09-19T12:17:36;21.40;68.00
74511;DHT22;62991;50.040;18.400;2023-09-19T12:20:44;21.90;67.40
74511;DHT22;62991;50.040;18.400;2023-09-19T12:27:06;22.60;64.80
74511;DHT22;62991;50.040;18.400;2023-09-19T12:30:08;22.90;64.90
74511;DHT22;62991;50.040;18.400;2023-09-19T12:33:19;22.90;63.70
74511;DHT22;62991;50.040;18.400;2023-09-19T12:36:26;22.80;63.80
74511;DHT22;62991;50.040;18.400;2023-09-19T12:39:30;22.60;64.40
74511;DHT22;62991;50.040;18.400;2023-09-19T12:42:31;22.60;63.90
74511;DHT22;62991;50.040;18.400;2023-09-19T12:45:35;23.00;63.80
74511;DHT22;62991;50.040;18.400;2023-09-19T12:48:37;23.30;62.90
74511;DHT22;62991;50.040;18.400;2023-09-19T12:51:46;23.80;62.00
74511;DHT22;62991;50.040;18.400;2023-09-19T12:54:47;24.20;59.80
74511;DHT22;62991;50.040;18.400;2023-09-19T13:01:14;23.50;61.80
74511;DHT22;62991;50.040;18.400;2023-09-19T13:04:17;23.00;61.90
74511;DHT22;62991;50.040;18.400;2023-09-19T13:07:45;23.90;60.60
74511;DHT22;62991;50.040;18.400;2023-09-19T13:11:07;23.60;60.80
74511;DHT22;62991;50.040;18.400;2023-09-19T13:14:24;23.00;62.30
74511;DHT22;62991;50.040;18.400;2023-09-19T13:17:25;22.40;64.30
74511;DHT22;62991;50.040;18.400;2023-09-19T13:20:43;22.20;64.80
74511;DHT22;62991;50.040;18.400;2023-09-19T13:24:17;22.10;65.50
74511;DHT22;62991;50.040;18.400;2023-09-19T13:27:17;22.30;65.40
74511;DHT22;62991;50.040;18.400;2023-09-19T13:30:18;22.50;64.20
74511;DHT22;62991;50.040;18.400;2023-09-19T13:33:20;22.80;64.10
74511;DHT22;62991;50.040;18.400;2023-09-19T13:36:21;23.00;64.30
74511;DHT22;62991;50.040;18.400;2023-09-19T13:39:22;22.90;64.60
74511;DHT22;62991;50.040;18.400;2023-09-19T13:42:25;22.90;65.00
74511;DHT22;62991;50.040;18.400;2023-09-19T13:45:30;22.30;64.30
74511;DHT22;62991;50.040;18.400;2023-09-19T13:48:31;22.50;64.10
74511;DHT22;62991;50.040;18.400;2023-09-19T13:51:32;24.20;59.20
74511;DHT22;62991;50.040;18.400;2023-09-19T13:54:33;29.40;48.40
74511;DHT22;62991;50.040;18.400;2023-09-19T13:57:33;33.10;42.20
74511;DHT22;62991;50.040;18.400;2023-09-19T14:00:34;33.50;40.50
74511;DHT22;62991;50.040;18.400;2023-09-19T14:03:35;31.80;42.20
74511;DHT22;62991;50.040;18.400;2023-09-19T14:06:36;28.60;47.00
74511;DHT22;62991;50.040;18.400;2023-09-19T14:09:37;26.60;50.40
74511;DHT22;62991;50.040;18.400;2023-09-19T14:12:39;25.20;53.10
74511;DHT22;62991;50.040;18.400;2023-09-19T14:15:42;24.40;56.10
74511;DHT22;62991;50.040;18.400;2023-09-19T14:18:45;23.80;57.40
74511;DHT22;62991;50.040;18.400;2023-09-19T14:21:46;23.30;58.80
74511;DHT22;62991;50.040;18.400;2023-09-19T14:24:48;23.00;60.20
74511;DHT22;62991;50.040;18.400;2023-09-19T14:27:48;22.20;62.50
74511;DHT22;62991;50.040;18.400;2023-09-19T14:30:49;21.30;65.30
74511;DHT22;62991;50.040;18.400;2023-09-19T14:33:56;21.10;66.90
74511;DHT22;62991;50.040;18.400;2023-09-19T14:36:57;20.80;68.70
74511;DHT22;62991;50.040;18.400;2023-09-19T14:39:58;20.20;71.10
74511;DHT22;62991;50.040;18.400;2023-09-19T14:42:58;20.00;72.40
74511;DHT22;62991;50.040;18.400;2023-09-19T14:46:05;19.90;73.10
74511;DHT22;62991;50.040;18.400;2023-09-19T14:49:10;19.80;73.40
74511;DHT22;62991;50.040;18.400;2023-09-19T14:52:11;19.80;74.30
74511;DHT22;62991;50.040;18.400;2023-09-19T14:55:15;19.70;73.30
74511;DHT22;62991;50.040;18.400;2023-09-19T14:58:16;19.70;73.60
74511;DHT22;62991;50.040;18.400;2023-09-19T15:01:17;19.90;73.00
74511;DHT22;62991;50.040;18.400;2023-09-19T15:04:18;20.00;72.70
74511;DHT22;62991;50.040;18.400;2023-09-19T15:07:18;20.20;72.20
74511;DHT22;62991;50.040;18.400;2023-09-19T15:10:20;20.50;71.20
74511;DHT22;62991;50.040;18.400;2023-09-19T15:13:21;20.60;70.70
74511;DHT22;62991;50.040;18.400;2023-09-19T15:16:21;20.70;70.00
74511;DHT22;62991;50.040;18.400;2023-09-19T15:19:22;21.10;69.40
74511;DHT22;62991;50.040;18.400;2023-09-19T15:22:23;21.40;68.00
74511;DHT22;62991;50.040;18.400;2023-09-19T15:25:25;21.80;66.90
74511;DHT22;62991;50.040;18.400;2023-09-19T15:28:26;22.10;66.10
74511;DHT22;62991;50.040;18.400;2023-09-19T15:31:28;22.80;64.60
74511;DHT22;62991;50.040;18.400;2023-09-19T15:34:29;23.50;62.80
74511;DHT22;62991;50.040;18.400;2023-09-19T15:37:30;24.10;61.00
74511;DHT22;62991;50.040;18.400;2023-09-19T15:40:31;24.40;60.20
74511;DHT22;62991;50.040;18.400;2023-09-19T15:43:31;24.70;59.20
74511;DHT22;62991;50.040;18.400;2023-09-19T15:46:33;25.00;58.70
74511;DHT22;62991;50.040;18.400;2023-09-19T15:49:35;25.30;57.60
74511;DHT22;62991;50.040;18.400;2023-09-19T15:52:36;25.50;57.90
74511;DHT22;62991;50.040;18.400;2023-09-19T15:55:39;25.60;57.80
74511;DHT22;62991;50.040;18.400;2023-09-19T15:58:47;25.70;57.50
74511;DHT22;62991;50.040;18.400;2023-09-19T16:01:48;25.60;58.10
74511;DHT22;62991;50.040;18.400;2023-09-19T16:04:51;25.60;57.60
74511;DHT22;62991;50.040;18.400;2023-09-19T16:07:51;25.70;57.30
74511;DHT22;62991;50.040;18.400;2023-09-19T16:10:52;25.70;56.70
74511;DHT22;62991;50.040;18.400;2023-09-19T16:13:53;25.70;56.40
74511;DHT22;62991;50.040;18.400;2023-09-19T16:16:54;25.70;56.60
74511;DHT22;62991;50.040;18.400;2023-09-19T16:19:55;25.60;56.50
74511;DHT22;62991;50.040;18.400;2023-09-19T16:22:56;25.40;56.30
74511;DHT22;62991;50.040;18.400;2023-09-19T16:26:07;25.10;56.70
74511;DHT22;62991;50.040;18.400;2023-09-19T16:29:08;24.60;57.90
74511;DHT22;62991;50.040;18.400;2023-09-19T16:32:10;24.30;58.30
74511;DHT22;62991;50.040;18.400;2023-09-19T16:35:11;24.00;59.10
74511;DHT22;62991;50.040;18.400;2023-09-19T16:38:13;23.80;59.30
74511;DHT22;62991;50.040;18.400;2023-09-19T16:41:14;23.40;60.80
74511;DHT22;62991;50.040;18.400;2023-09-19T16:44:16;23.20;61.30
74511;DHT22;62991;50.040;18.400;2023-09-19T16:47:16;23.00;61.80
74511;DHT22;62991;50.040;18.400;2023-09-19T16:50:17;22.80;62.10
74511;DHT22;62991;50.040;18.400;2023-09-19T16:53:18;22.70;62.80
74511;DHT22;62991;50.040;18.400;2023-09-19T16:56:19;22.50;62.90
74511;DHT22;62991;50.040;18.400;2023-09-19T16:59:19;22.40;63.20
74511;DHT22;62991;50.040;18.400;2023-09-19T17:02:23;22.30;63.40
74511;DHT22;62991;50.040;18.400;2023-09-19T17:05:24;22.20;63.90
74511;DHT22;62991;50.040;18.400;2023-09-19T17:08:26;22.10;64.10
74511;DHT22;62991;50.040;18.400;2023-09-19T17:11:28;22.00;64.00
74511;DHT22;62991;50.040;18.400;2023-09-19T17:14:29;21.90;63.70
74511;DHT22;62991;50.040;18.400;2023-09-19T17:17:48;21.70;64.40
74511;DHT22;62991;50.040;18.400;2023-09-19T17:20:49;21.60;64.30
74511;DHT22;62991;50.040;18.400;2023-09-19T17:23:50;21.50;64.80
74511;DHT22;62991;50.040;18.400;2023-09-19T17:26:52;21.40;65.10
74511;DHT22;62991;50.040;18.400;2023-09-19T17:29:53;21.40;64.80
74511;DHT22;62991;50.040;18.400;2023-09-19T17:32:53;21.30;65.10
74511;DHT22;62991;50.040;18.400;2023-09-19T17:36:06;21.30;65.20
74511;DHT22;62991;50.040;18.400;2023-09-19T17:39:07;21.20;65.50
74511;DHT22;62991;50.040;18.400;2023-09-19T17:42:10;21.10;65.70
74511;DHT22;62991;50.040;18.400;2023-09-19T17:45:13;21.10;66.20
74511;DHT22;62991;50.040;18.400;2023-09-19T17:48:14;21.00;66.40
74511;DHT22;62991;50.040;18.400;2023-09-19T17:51:15;21.00;65.90
74511;DHT22;62991;50.040;18.400;2023-09-19T17:54:19;20.90;66.40
74511;DHT22;62991;50.040;18.400;2023-09-19T17:57:20;20.90;66.50
74511;DHT22;62991;50.040;18.400;2023-09-19T18:00:21;20.80;66.40
74511;DHT22;62991;50.040;18.400;2023-09-19T18:03:23;20.80;66.90
74511;DHT22;62991;50.040;18.400;2023-09-19T18:06:28;20.80;66.70
74511;DHT22;62991;50.040;18.400;2023-09-19T18:09:31;20.70;66.60
74511;DHT22;62991;50.040;18.400;2023-09-19T18:12:32;20.70;66.70
74511;DHT22;62991;50.040;18.400;2023-09-19T18:15:32;20.60;67.30
74511;DHT22;62991;50.040;18.400;2023-09-19T18:18:38;20.50;67.30
74511;DHT22;62991;50.040;18.400;2023-09-19T18:21:38;20.50;67.20
74511;DHT22;62991;50.040;18.400;2023-09-19T18:24:40;20.50;67.70
74511;DHT22;62991;50.040;18.400;2023-09-19T18:27:42;20.40;67.80
74511;DHT22;62991;50.040;18.400;2023-09-19T18:30:44;20.40;67.90
74511;DHT22;62991;50.040;18.400;2023-09-19T18:33:44;20.40;68.00
74511;DHT22;62991;50.040;18.400;2023-09-19T18:36:47;20.40;68.00
74511;DHT22;62991;50.040;18.400;2023-09-19T18:39:49;20.30;68.00
74511;DHT22;62991;50.040;18.400;2023-09-19T18:42:50;20.30;68.00
74511;DHT22;62991;50.040;18.400;2023-09-19T18:45:56;20.30;68.10
74511;DHT22;62991;50.040;18.400;2023-09-19T18:48:57;20.30;68.10
74511;DHT22;62991;50.040;18.400;2023-09-19T18:51:58;20.20;68.40
74511;DHT22;62991;50.040;18.400;2023-09-19T18:54:58;20.20;68.50
74511;DHT22;62991;50.040;18.400;2023-09-19T18:58:00;20.20;68.70
74511;DHT22;62991;50.040;18.400;2023-09-19T19:01:04;20.20;68.80
74511;DHT22;62991;50.040;18.400;2023-09-19T19:04:05;20.10;68.70
74511;DHT22;62991;50.040;18.400;2023-09-19T19:07:07;20.10;68.70
74511;DHT22;62991;50.040;18.400;2023-09-19T19:10:08;20.00;69.10
74511;DHT22;62991;50.040;18.400;2023-09-19T19:13:09;19.90;69.40
74511;DHT22;62991;50.040;18.400;2023-09-19T19:16:09;19.90;69.20